sensor_id;sensor_type;location;lat;lon;timestamp;temperature;humidity
9666;DHT22;4871;52.004;5.924;2022-09-29T00:00:00;9.5;67.8
9666;DHT22;4871;52.004;5.924;2022-09-29T00:01:01;9.5;67.6
9666;DHT22;4871;52.004;5.924;2022-09-29T00:02:00;9.5;67.5
9666;DHT22;4871;52.004;5.924;2022-09-29T00:03:00;9.5;67.8
9666;DHT22;4871;52.004;5.924;2022-09-29T00:04:00;9.5;67.7
9666;DHT22;4871;52.004;5.924;2022-09-29T00:05:00;9.5;67.7
9666;DHT22;4871;52.004;5.924;2022-09-29T00:06:00;9.5;67.5
9666;DHT22;4871;52.004;5.924;2022-09-29T00:07:00;9.5;67.9
9666;DHT22;4871;52.004;5.924;2022-09-29T00:08:00;9.5;67.7
9666;DHT22;4871;52.004;5.924;2022-09-29T00:09:00;9.5;67.7
9666;DHT22;4871;52.004;5.924;2022-09-29T00:10:00;9.5;67.6
9666;DHT22;4871;52.004;5.924;2022-09-29T00:11:00;9.5;67.6
9666;DHT22;4871;52.004;5.924;2022-09-29T00:12:00;9.5;67.8
9666;DHT22;4871;52.004;5.924;2022-09-29T00:13:00;9.5;67.8
9666;DHT22;4871;52.004;5.924;2022-09-29T00:14:00;9.4;67.7
9666;DHT22;4871;52.004;5.924;2022-09-29T00:15:00;9.5;67.5
9666;DHT22;4871;52.004;5.924;2022-09-29T00:16:01;9.4;67.6
9666;DHT22;4871;52.004;5.924;2022-09-29T00:17:00;9.4;67.5
9666;DHT22;4871;52.004;5.924;2022-09-29T00:18:00;9.4;67.7
9666;DHT22;4871;52.004;5.924;2022-09-29T00:19:00;9.4;67.7
9666;DHT22;4871;52.004;5.924;2022-09-29T00:20:00;9.4;67.5
9666;DHT22;4871;52.004;5.924;2022-09-29T00:21:04;9.4;67.9
9666;DHT22;4871;52.004;5.924;2022-09-29T00:22:00;9.3;67.7
9666;DHT22;4871;52.004;5.924;2022-09-29T00:23:00;9.3;67.8
9666;DHT22;4871;52.004;5.924;2022-09-29T00:24:00;9.3;67.6
9666;DHT22;4871;52.004;5.924;2022-09-29T00:25:00;9.3;67.8
9666;DHT22;4871;52.004;5.924;2022-09-29T00:26:06;9.3;67.4
9666;DHT22;4871;52.004;5.924;2022-09-29T00:27:00;9.3;67.7
9666;DHT22;4871;52.004;5.924;2022-09-29T00:28:00;9.3;67.7
9666;DHT22;4871;52.004;5.924;2022-09-29T00:29:00;9.3;67.9
9666;DHT22;4871;52.004;5.924;2022-09-29T00:30:00;9.3;67.7
9666;DHT22;4871;52.004;5.924;2022-09-29T00:31:01;9.3;67.8
9666;DHT22;4871;52.004;5.924;2022-09-29T00:32:00;9.2;67.8
9666;DHT22;4871;52.004;5.924;2022-09-29T00:33:00;9.2;67.7
9666;DHT22;4871;52.004;5.924;2022-09-29T00:34:00;9.3;67.6
9666;DHT22;4871;52.004;5.924;2022-09-29T00:35:00;9.3;67.6
9666;DHT22;4871;52.004;5.924;2022-09-29T00:36:03;9.2;67.6
9666;DHT22;4871;52.004;5.924;2022-09-29T00:37:00;9.2;67.8
9666;DHT22;4871;52.004;5.924;2022-09-29T00:38:00;9.2;67.8
9666;DHT22;4871;52.004;5.924;2022-09-29T00:39:00;9.2;68.0
9666;DHT22;4871;52.004;5.924;2022-09-29T00:40:01;9.2;67.6
9666;DHT22;4871;52.004;5.924;2022-09-29T00:41:00;9.2;67.9
9666;DHT22;4871;52.004;5.924;2022-09-29T00:42:00;9.2;67.8
9666;DHT22;4871;52.004;5.924;2022-09-29T00:43:00;9.2;67.8
9666;DHT22;4871;52.004;5.924;2022-09-29T00:44:05;9.1;67.9
9666;DHT22;4871;52.004;5.924;2022-09-29T00:45:11;9.2;68.0
9666;DHT22;4871;52.004;5.924;2022-09-29T00:46:01;9.1;67.9
9666;DHT22;4871;52.004;5.924;2022-09-29T00:47:02;9.1;67.9
9666;DHT22;4871;52.004;5.924;2022-09-29T00:48:11;9.1;68.0
9666;DHT22;4871;52.004;5.924;2022-09-29T00:49:04;9.2;67.6
9666;DHT22;4871;52.004;5.924;2022-09-29T00:50:19;9.1;67.7
9666;DHT22;4871;52.004;5.924;2022-09-29T00:51:00;9.1;67.7
9666;DHT22;4871;52.004;5.924;2022-09-29T00:52:04;9.1;67.8
9666;DHT22;4871;52.004;5.924;2022-09-29T00:53:01;9.0;68.0
9666;DHT22;4871;52.004;5.924;2022-09-29T00:54:00;9.0;68.0
9666;DHT22;4871;52.004;5.924;2022-09-29T00:55:07;9.0;68.0
9666;DHT22;4871;52.004;5.924;2022-09-29T00:56:02;9.0;67.9
9666;DHT22;4871;52.004;5.924;2022-09-29T00:57:01;9.1;67.9
9666;DHT22;4871;52.004;5.924;2022-09-29T00:58:04;9.0;67.9
9666;DHT22;4871;52.004;5.924;2022-09-29T00:59:02;9.1;67.8
9666;DHT22;4871;52.004;5.924;2022-09-29T01:00:04;9.0;67.9
9666;DHT22;4871;52.004;5.924;2022-09-29T01:01:00;9.0;67.7
9666;DHT22;4871;52.004;5.924;2022-09-29T01:02:00;9.0;67.7
9666;DHT22;4871;52.004;5.924;2022-09-29T01:03:07;9.0;67.8
9666;DHT22;4871;52.004;5.924;2022-09-29T01:04:04;9.0;67.7
9666;DHT22;4871;52.004;5.924;2022-09-29T01:05:02;9.0;68.0
9666;DHT22;4871;52.004;5.924;2022-09-29T01:06:04;9.0;67.6
9666;DHT22;4871;52.004;5.924;2022-09-29T01:07:00;8.9;67.8
9666;DHT22;4871;52.004;5.924;2022-09-29T01:08:05;8.9;68.0
9666;DHT22;4871;52.004;5.924;2022-09-29T01:09:08;8.9;67.9
9666;DHT22;4871;52.004;5.924;2022-09-29T01:10:00;8.9;67.8
9666;DHT22;4871;52.004;5.924;2022-09-29T01:11:01;8.9;68.0
9666;DHT22;4871;52.004;5.924;2022-09-29T01:12:00;8.9;67.9
9666;DHT22;4871;52.004;5.924;2022-09-29T01:13:00;8.9;67.9
9666;DHT22;4871;52.004;5.924;2022-09-29T01:14:05;8.9;67.9
9666;DHT22;4871;52.004;5.924;2022-09-29T01:15:00;8.9;67.8
9666;DHT22;4871;52.004;5.924;2022-09-29T01:16:00;8.9;67.9
9666;DHT22;4871;52.004;5.924;2022-09-29T01:17:00;8.9;67.9
9666;DHT22;4871;52.004;5.924;2022-09-29T01:18:00;8.9;68.0
9666;DHT22;4871;52.004;5.924;2022-09-29T01:19:05;8.9;67.9
9666;DHT22;4871;52.004;5.924;2022-09-29T01:21:12;8.9;67.8
9666;DHT22;4871;52.004;5.924;2022-09-29T01:22:13;8.9;67.8
9666;DHT22;4871;52.004;5.924;2022-09-29T01:25:14;8.8;67.9
9666;DHT22;4871;52.004;5.924;2022-09-29T01:26:22;8.8;68.0
9666;DHT22;4871;52.004;5.924;2022-09-29T01:27:12;8.8;67.7
9666;DHT22;4871;52.004;5.924;2022-09-29T01:28:10;8.8;67.9
9666;DHT22;4871;52.004;5.924;2022-09-29T01:29:07;8.9;67.8
9666;DHT22;4871;52.004;5.924;2022-09-29T01:30:04;8.9;67.7
9666;DHT22;4871;52.004;5.924;2022-09-29T01:31:13;8.8;68.0
9666;DHT22;4871;52.004;5.924;2022-09-29T01:32:07;8.8;67.9
9666;DHT22;4871;52.004;5.924;2022-09-29T01:34:09;8.8;67.7
9666;DHT22;4871;52.004;5.924;2022-09-29T01:35:13;8.8;68.0
9666;DHT22;4871;52.004;5.924;2022-09-29T01:36:17;8.8;67.8
9666;DHT22;4871;52.004;5.924;2022-09-29T01:38:06;8.8;68.0
9666;DHT22;4871;52.004;5.924;2022-09-29T01:39:16;8.7;67.9
9666;DHT22;4871;52.004;5.924;2022-09-29T01:40:05;8.8;67.9
9666;DHT22;4871;52.004;5.924;2022-09-29T01:41:15;8.7;68.1
9666;DHT22;4871;52.004;5.924;2022-09-29T01:42:12;8.8;67.8
9666;DHT22;4871;52.004;5.924;2022-09-29T01:43:04;8.7;67.6
9666;DHT22;4871;52.004;5.924;2022-09-29T01:44:06;8.8;67.6
9666;DHT22;4871;52.004;5.924;2022-09-29T01:45:08;8.8;67.8
9666;DHT22;4871;52.004;5.924;2022-09-29T01:46:03;8.7;67.7
9666;DHT22;4871;52.004;5.924;2022-09-29T01:47:08;8.8;67.8
9666;DHT22;4871;52.004;5.924;2022-09-29T01:48:04;8.7;67.9
9666;DHT22;4871;52.004;5.924;2022-09-29T01:49:01;8.7;67.8
9666;DHT22;4871;52.004;5.924;2022-09-29T01:50:03;8.7;67.9
9666;DHT22;4871;52.004;5.924;2022-09-29T01:51:05;8.7;67.7
9666;DHT22;4871;52.004;5.924;2022-09-29T01:52:08;8.7;67.9
9666;DHT22;4871;52.004;5.924;2022-09-29T01:53:03;8.7;67.9
9666;DHT22;4871;52.004;5.924;2022-09-29T01:54:05;8.6;68.1
9666;DHT22;4871;52.004;5.924;2022-09-29T01:55:04;8.7;68.0
9666;DHT22;4871;52.004;5.924;2022-09-29T01:56:04;8.7;67.9
9666;DHT22;4871;52.004;5.924;2022-09-29T01:57:06;8.6;67.9
9666;DHT22;4871;52.004;5.924;2022-09-29T01:58:04;8.6;68.0
9666;DHT22;4871;52.004;5.924;2022-09-29T01:59:14;8.6;67.9
9666;DHT22;4871;52.004;5.924;2022-09-29T02:00:10;8.6;68.1
9666;DHT22;4871;52.004;5.924;2022-09-29T02:01:03;8.6;68.1
9666;DHT22;4871;52.004;5.924;2022-09-29T02:02:05;8.6;67.6
9666;DHT22;4871;52.004;5.924;2022-09-29T02:03:08;8.6;67.9
9666;DHT22;4871;52.004;5.924;2022-09-29T02:04:04;8.6;67.9
9666;DHT22;4871;52.004;5.924;2022-09-29T02:05:04;8.6;67.9
9666;DHT22;4871;52.004;5.924;2022-09-29T02:06:03;8.6;67.8
9666;DHT22;4871;52.004;5.924;2022-09-29T02:07:04;8.6;67.9
9666;DHT22;4871;52.004;5.924;2022-09-29T02:08:05;8.6;68.0
9666;DHT22;4871;52.004;5.924;2022-09-29T02:09:02;8.5;68.1
9666;DHT22;4871;52.004;5.924;2022-09-29T02:10:01;8.5;67.9
9666;DHT22;4871;52.004;5.924;2022-09-29T02:11:03;8.5;68.0
9666;DHT22;4871;52.004;5.924;2022-09-29T02:12:01;8.6;67.6
9666;DHT22;4871;52.004;5.924;2022-09-29T02:13:02;8.6;67.7
9666;DHT22;4871;52.004;5.924;2022-09-29T02:14:13;8.5;67.8
9666;DHT22;4871;52.004;5.924;2022-09-29T02:15:01;8.5;67.9
9666;DHT22;4871;52.004;5.924;2022-09-29T02:16:01;8.5;67.8
9666;DHT22;4871;52.004;5.924;2022-09-29T02:17:05;8.5;68.0
9666;DHT22;4871;52.004;5.924;2022-09-29T02:18:06;8.5;67.9
9666;DHT22;4871;52.004;5.924;2022-09-29T02:19:05;8.5;67.9
9666;DHT22;4871;52.004;5.924;2022-09-29T02:20:00;8.5;67.7
9666;DHT22;4871;52.004;5.924;2022-09-29T02:21:00;8.4;67.8
9666;DHT22;4871;52.004;5.924;2022-09-29T02:22:00;8.5;67.9
9666;DHT22;4871;52.004;5.924;2022-09-29T02:23:00;8.5;67.8
9666;DHT22;4871;52.004;5.924;2022-09-29T02:24:00;8.5;68.0
9666;DHT22;4871;52.004;5.924;2022-09-29T02:25:00;8.4;68.1
9666;DHT22;4871;52.004;5.924;2022-09-29T02:26:01;8.4;68.1
9666;DHT22;4871;52.004;5.924;2022-09-29T02:27:01;8.5;68.0
9666;DHT22;4871;52.004;5.924;2022-09-29T02:28:00;8.5;67.9
9666;DHT22;4871;52.004;5.924;2022-09-29T02:29:00;8.4;67.9
9666;DHT22;4871;52.004;5.924;2022-09-29T02:30:00;8.4;67.8
9666;DHT22;4871;52.004;5.924;2022-09-29T02:31:01;8.4;67.8
9666;DHT22;4871;52.004;5.924;2022-09-29T02:32:03;8.4;68.1
9666;DHT22;4871;52.004;5.924;2022-09-29T02:33:00;8.4;68.0
9666;DHT22;4871;52.004;5.924;2022-09-29T02:34:00;8.5;67.8
9666;DHT22;4871;52.004;5.924;2022-09-29T02:35:01;8.4;67.8
9666;DHT22;4871;52.004;5.924;2022-09-29T02:36:19;8.4;67.9
9666;DHT22;4871;52.004;5.924;2022-09-29T02:37:17;8.4;68.1
9666;DHT22;4871;52.004;5.924;2022-09-29T02:38:06;8.4;68.1
9666;DHT22;4871;52.004;5.924;2022-09-29T02:39:11;8.3;68.1
9666;DHT22;4871;52.004;5.924;2022-09-29T02:40:15;8.4;67.9
9666;DHT22;4871;52.004;5.924;2022-09-29T02:41:14;8.4;68.1
9666;DHT22;4871;52.004;5.924;2022-09-29T02:42:12;8.3;68.0
9666;DHT22;4871;52.004;5.924;2022-09-29T02:47:13;8.3;67.9
9666;DHT22;4871;52.004;5.924;2022-09-29T02:51:05;8.3;67.8
9666;DHT22;4871;52.004;5.924;2022-09-29T02:52:08;8.3;68.0
9666;DHT22;4871;52.004;5.924;2022-09-29T02:53:12;8.3;68.0
9666;DHT22;4871;52.004;5.924;2022-09-29T02:55:06;8.2;68.2
9666;DHT22;4871;52.004;5.924;2022-09-29T02:56:12;8.2;68.2
9666;DHT22;4871;52.004;5.924;2022-09-29T02:57:10;8.3;68.0
9666;DHT22;4871;52.004;5.924;2022-09-29T02:58:14;8.3;67.8
9666;DHT22;4871;52.004;5.924;2022-09-29T02:59:04;8.3;67.9
9666;DHT22;4871;52.004;5.924;2022-09-29T03:00:08;8.3;67.9
9666;DHT22;4871;52.004;5.924;2022-09-29T03:01:01;8.3;68.0
9666;DHT22;4871;52.004;5.924;2022-09-29T03:02:00;8.2;68.1
9666;DHT22;4871;52.004;5.924;2022-09-29T03:03:00;8.2;68.0
9666;DHT22;4871;52.004;5.924;2022-09-29T03:04:00;8.2;68.1
9666;DHT22;4871;52.004;5.924;2022-09-29T03:05:00;8.3;68.0
9666;DHT22;4871;52.004;5.924;2022-09-29T03:06:00;8.3;67.9
9666;DHT22;4871;52.004;5.924;2022-09-29T03:07:00;8.2;68.0
9666;DHT22;4871;52.004;5.924;2022-09-29T03:08:00;8.2;68.0
9666;DHT22;4871;52.004;5.924;2022-09-29T03:09:00;8.2;67.8
9666;DHT22;4871;52.004;5.924;2022-09-29T03:10:00;8.2;68.0
9666;DHT22;4871;52.004;5.924;2022-09-29T03:11:00;8.2;68.1
9666;DHT22;4871;52.004;5.924;2022-09-29T03:12:00;8.2;68.0
9666;DHT22;4871;52.004;5.924;2022-09-29T03:13:00;8.3;67.9
9666;DHT22;4871;52.004;5.924;2022-09-29T03:14:00;8.2;67.9
9666;DHT22;4871;52.004;5.924;2022-09-29T03:15:00;8.2;68.0
9666;DHT22;4871;52.004;5.924;2022-09-29T03:16:00;8.2;67.8
9666;DHT22;4871;52.004;5.924;2022-09-29T03:17:00;8.2;67.9
9666;DHT22;4871;52.004;5.924;2022-09-29T03:18:01;8.1;67.9
9666;DHT22;4871;52.004;5.924;2022-09-29T03:19:00;8.1;68.1
9666;DHT22;4871;52.004;5.924;2022-09-29T03:20:00;8.2;67.7
9666;DHT22;4871;52.004;5.924;2022-09-29T03:21:00;8.2;68.0
9666;DHT22;4871;52.004;5.924;2022-09-29T03:22:00;8.2;68.0
9666;DHT22;4871;52.004;5.924;2022-09-29T03:23:00;8.2;68.1
9666;DHT22;4871;52.004;5.924;2022-09-29T03:24:00;8.2;68.0
9666;DHT22;4871;52.004;5.924;2022-09-29T03:25:00;8.2;67.8
9666;DHT22;4871;52.004;5.924;2022-09-29T03:26:00;8.2;67.9
9666;DHT22;4871;52.004;5.924;2022-09-29T03:27:00;8.2;67.9
9666;DHT22;4871;52.004;5.924;2022-09-29T03:28:00;8.1;68.1
9666;DHT22;4871;52.004;5.924;2022-09-29T03:29:00;8.2;68.0
9666;DHT22;4871;52.004;5.924;2022-09-29T03:30:00;8.2;67.9
9666;DHT22;4871;52.004;5.924;2022-09-29T03:31:05;8.2;67.9
9666;DHT22;4871;52.004;5.924;2022-09-29T03:32:00;8.1;68.0
9666;DHT22;4871;52.004;5.924;2022-09-29T03:33:00;8.1;68.1
9666;DHT22;4871;52.004;5.924;2022-09-29T03:34:00;8.2;68.0
9666;DHT22;4871;52.004;5.924;2022-09-29T03:35:00;8.1;68.0
9666;DHT22;4871;52.004;5.924;2022-09-29T03:36:00;8.1;68.1
9666;DHT22;4871;52.004;5.924;2022-09-29T03:37:00;8.1;68.2
9666;DHT22;4871;52.004;5.924;2022-09-29T03:38:00;8.1;68.1
9666;DHT22;4871;52.004;5.924;2022-09-29T03:39:00;8.2;67.9
9666;DHT22;4871;52.004;5.924;2022-09-29T03:40:00;8.2;67.8
9666;DHT22;4871;52.004;5.924;2022-09-29T03:41:00;8.2;67.8
9666;DHT22;4871;52.004;5.924;2022-09-29T03:42:00;8.1;67.9
9666;DHT22;4871;52.004;5.924;2022-09-29T03:43:00;8.2;67.9
9666;DHT22;4871;52.004;5.924;2022-09-29T03:44:00;8.1;68.0
9666;DHT22;4871;52.004;5.924;2022-09-29T03:45:00;8.1;67.8
9666;DHT22;4871;52.004;5.924;2022-09-29T03:46:00;8.1;67.9
9666;DHT22;4871;52.004;5.924;2022-09-29T03:47:00;8.2;67.8
9666;DHT22;4871;52.004;5.924;2022-09-29T03:48:00;8.1;67.7
9666;DHT22;4871;52.004;5.924;2022-09-29T03:49:00;8.1;67.9
9666;DHT22;4871;52.004;5.924;2022-09-29T03:50:00;8.1;68.0
9666;DHT22;4871;52.004;5.924;2022-09-29T03:51:00;8.1;68.0
9666;DHT22;4871;52.004;5.924;2022-09-29T03:52:01;8.1;68.0
9666;DHT22;4871;52.004;5.924;2022-09-29T03:53:00;8.0;68.0
9666;DHT22;4871;52.004;5.924;2022-09-29T03:54:00;8.0;68.1
9666;DHT22;4871;52.004;5.924;2022-09-29T03:55:00;8.0;68.1
9666;DHT22;4871;52.004;5.924;2022-09-29T03:56:00;8.0;67.8
9666;DHT22;4871;52.004;5.924;2022-09-29T03:57:00;8.1;68.0
9666;DHT22;4871;52.004;5.924;2022-09-29T03:58:00;8.0;68.0
9666;DHT22;4871;52.004;5.924;2022-09-29T03:59:00;8.0;68.0
9666;DHT22;4871;52.004;5.924;2022-09-29T04:00:00;8.0;68.2
9666;DHT22;4871;52.004;5.924;2022-09-29T04:01:00;8.0;68.1
9666;DHT22;4871;52.004;5.924;2022-09-29T04:02:00;8.0;68.1
9666;DHT22;4871;52.004;5.924;2022-09-29T04:03:00;8.0;68.1
9666;DHT22;4871;52.004;5.924;2022-09-29T04:04:00;8.0;68.1
9666;DHT22;4871;52.004;5.924;2022-09-29T04:05:00;8.0;68.0
9666;DHT22;4871;52.004;5.924;2022-09-29T04:06:00;8.0;67.8
9666;DHT22;4871;52.004;5.924;2022-09-29T04:07:00;8.0;68.1
9666;DHT22;4871;52.004;5.924;2022-09-29T04:08:00;8.0;68.1
9666;DHT22;4871;52.004;5.924;2022-09-29T04:09:00;8.0;68.1
9666;DHT22;4871;52.004;5.924;2022-09-29T04:10:00;7.9;68.2
9666;DHT22;4871;52.004;5.924;2022-09-29T04:11:00;7.9;68.2
9666;DHT22;4871;52.004;5.924;2022-09-29T04:12:00;7.9;68.3
9666;DHT22;4871;52.004;5.924;2022-09-29T04:13:00;7.9;68.1
9666;DHT22;4871;52.004;5.924;2022-09-29T04:14:00;7.9;68.0
9666;DHT22;4871;52.004;5.924;2022-09-29T04:15:00;8.0;68.0
9666;DHT22;4871;52.004;5.924;2022-09-29T04:16:01;7.9;68.1
9666;DHT22;4871;52.004;5.924;2022-09-29T04:17:00;7.9;68.1
9666;DHT22;4871;52.004;5.924;2022-09-29T04:18:00;7.9;68.1
9666;DHT22;4871;52.004;5.924;2022-09-29T04:19:00;7.9;68.0
9666;DHT22;4871;52.004;5.924;2022-09-29T04:20:00;7.9;67.8
9666;DHT22;4871;52.004;5.924;2022-09-29T04:21:05;7.9;68.0
9666;DHT22;4871;52.004;5.924;2022-09-29T04:22:00;7.9;68.1
9666;DHT22;4871;52.004;5.924;2022-09-29T04:23:00;7.9;68.0
9666;DHT22;4871;52.004;5.924;2022-09-29T04:24:00;7.8;68.2
9666;DHT22;4871;52.004;5.924;2022-09-29T04:25:00;7.8;68.1
9666;DHT22;4871;52.004;5.924;2022-09-29T04:26:01;7.8;68.3
9666;DHT22;4871;52.004;5.924;2022-09-29T04:27:00;7.8;68.1
9666;DHT22;4871;52.004;5.924;2022-09-29T04:28:00;7.8;68.1
9666;DHT22;4871;52.004;5.924;2022-09-29T04:29:00;7.8;68.3
9666;DHT22;4871;52.004;5.924;2022-09-29T04:30:00;7.8;68.2
9666;DHT22;4871;52.004;5.924;2022-09-29T04:31:00;7.8;68.3
9666;DHT22;4871;52.004;5.924;2022-09-29T04:32:00;7.7;68.3
9666;DHT22;4871;52.004;5.924;2022-09-29T04:33:00;7.8;68.1
9666;DHT22;4871;52.004;5.924;2022-09-29T04:34:00;7.8;67.9
9666;DHT22;4871;52.004;5.924;2022-09-29T04:35:00;7.7;68.2
9666;DHT22;4871;52.004;5.924;2022-09-29T04:36:00;7.8;68.1
9666;DHT22;4871;52.004;5.924;2022-09-29T04:37:00;7.8;68.1
9666;DHT22;4871;52.004;5.924;2022-09-29T04:38:00;7.8;68.1
9666;DHT22;4871;52.004;5.924;2022-09-29T04:39:00;7.7;68.2
9666;DHT22;4871;52.004;5.924;2022-09-29T04:40:00;7.7;68.1
9666;DHT22;4871;52.004;5.924;2022-09-29T04:41:00;7.6;68.2
9666;DHT22;4871;52.004;5.924;2022-09-29T04:42:00;7.7;68.4
9666;DHT22;4871;52.004;5.924;2022-09-29T04:43:00;7.7;68.2
9666;DHT22;4871;52.004;5.924;2022-09-29T04:44:00;7.6;68.3
9666;DHT22;4871;52.004;5.924;2022-09-29T04:45:00;7.6;68.5
9666;DHT22;4871;52.004;5.924;2022-09-29T04:46:05;7.6;68.4
9666;DHT22;4871;52.004;5.924;2022-09-29T04:47:00;7.7;68.3
9666;DHT22;4871;52.004;5.924;2022-09-29T04:48:00;7.7;68.1
9666;DHT22;4871;52.004;5.924;2022-09-29T04:49:00;7.7;68.0
9666;DHT22;4871;52.004;5.924;2022-09-29T04:50:00;7.7;68.2
9666;DHT22;4871;52.004;5.924;2022-09-29T04:51:00;7.7;68.1
9666;DHT22;4871;52.004;5.924;2022-09-29T04:52:00;7.6;68.5
9666;DHT22;4871;52.004;5.924;2022-09-29T04:53:00;7.6;68.1
9666;DHT22;4871;52.004;5.924;2022-09-29T04:54:00;7.6;68.4
9666;DHT22;4871;52.004;5.924;2022-09-29T04:55:00;7.6;68.3
9666;DHT22;4871;52.004;5.924;2022-09-29T04:56:03;7.7;68.3
9666;DHT22;4871;52.004;5.924;2022-09-29T04:57:00;7.7;68.3
9666;DHT22;4871;52.004;5.924;2022-09-29T04:58:00;7.7;68.3
9666;DHT22;4871;52.004;5.924;2022-09-29T04:59:00;7.7;68.2
9666;DHT22;4871;52.004;5.924;2022-09-29T05:00:00;7.7;68.4
9666;DHT22;4871;52.004;5.924;2022-09-29T05:01:05;7.7;68.1
9666;DHT22;4871;52.004;5.924;2022-09-29T05:02:00;7.7;68.2
9666;DHT22;4871;52.004;5.924;2022-09-29T05:03:00;7.7;68.2
9666;DHT22;4871;52.004;5.924;2022-09-29T05:04:01;7.7;68.0
9666;DHT22;4871;52.004;5.924;2022-09-29T05:05:00;7.7;67.9
9666;DHT22;4871;52.004;5.924;2022-09-29T05:06:00;7.8;68.1
9666;DHT22;4871;52.004;5.924;2022-09-29T05:07:00;7.7;68.1
9666;DHT22;4871;52.004;5.924;2022-09-29T05:08:03;7.7;68.0
9666;DHT22;4871;52.004;5.924;2022-09-29T05:09:00;7.7;68.2
9666;DHT22;4871;52.004;5.924;2022-09-29T05:10:00;7.7;68.3
9666;DHT22;4871;52.004;5.924;2022-09-29T05:11:04;7.8;68.1
9666;DHT22;4871;52.004;5.924;2022-09-29T05:12:00;7.7;68.1
9666;DHT22;4871;52.004;5.924;2022-09-29T05:13:00;7.8;68.1
9666;DHT22;4871;52.004;5.924;2022-09-29T05:14:00;7.8;67.9
9666;DHT22;4871;52.004;5.924;2022-09-29T05:15:00;7.8;67.9
9666;DHT22;4871;52.004;5.924;2022-09-29T05:16:00;7.8;68.0
9666;DHT22;4871;52.004;5.924;2022-09-29T05:17:00;7.7;68.2
9666;DHT22;4871;52.004;5.924;2022-09-29T05:18:01;7.7;68.0
9666;DHT22;4871;52.004;5.924;2022-09-29T05:19:00;7.7;68.3
9666;DHT22;4871;52.004;5.924;2022-09-29T05:20:00;7.7;68.4
9666;DHT22;4871;52.004;5.924;2022-09-29T05:21:05;7.7;68.2
9666;DHT22;4871;52.004;5.924;2022-09-29T05:22:00;7.7;68.2
9666;DHT22;4871;52.004;5.924;2022-09-29T05:23:00;7.8;68.1
9666;DHT22;4871;52.004;5.924;2022-09-29T05:24:00;7.7;68.2
9666;DHT22;4871;52.004;5.924;2022-09-29T05:25:00;7.7;68.2
9666;DHT22;4871;52.004;5.924;2022-09-29T05:26:01;7.7;68.3
9666;DHT22;4871;52.004;5.924;2022-09-29T05:27:00;7.7;68.3
9666;DHT22;4871;52.004;5.924;2022-09-29T05:28:00;7.7;68.4
9666;DHT22;4871;52.004;5.924;2022-09-29T05:29:00;7.8;68.0
9666;DHT22;4871;52.004;5.924;2022-09-29T05:30:00;7.7;68.2
9666;DHT22;4871;52.004;5.924;2022-09-29T05:31:03;7.7;68.3
9666;DHT22;4871;52.004;5.924;2022-09-29T05:32:00;7.7;68.3
9666;DHT22;4871;52.004;5.924;2022-09-29T05:33:00;7.7;68.2
9666;DHT22;4871;52.004;5.924;2022-09-29T05:34:00;7.7;68.3
9666;DHT22;4871;52.004;5.924;2022-09-29T05:35:00;7.8;68.1
9666;DHT22;4871;52.004;5.924;2022-09-29T05:36:00;7.7;68.1
9666;DHT22;4871;52.004;5.924;2022-09-29T05:37:00;7.8;67.9
9666;DHT22;4871;52.004;5.924;2022-09-29T05:38:00;7.8;68.1
9666;DHT22;4871;52.004;5.924;2022-09-29T05:39:00;7.8;68.2
9666;DHT22;4871;52.004;5.924;2022-09-29T05:40:00;7.8;68.1
9666;DHT22;4871;52.004;5.924;2022-09-29T05:41:04;7.7;68.2
9666;DHT22;4871;52.004;5.924;2022-09-29T05:42:00;7.7;68.2
9666;DHT22;4871;52.004;5.924;2022-09-29T05:43:00;7.7;68.2
9666;DHT22;4871;52.004;5.924;2022-09-29T05:44:00;7.7;68.3
9666;DHT22;4871;52.004;5.924;2022-09-29T05:45:00;7.7;68.2
9666;DHT22;4871;52.004;5.924;2022-09-29T05:46:02;7.7;68.2
9666;DHT22;4871;52.004;5.924;2022-09-29T05:47:00;7.7;68.1
9666;DHT22;4871;52.004;5.924;2022-09-29T05:48:00;7.7;68.1
9666;DHT22;4871;52.004;5.924;2022-09-29T05:49:00;7.7;68.2
9666;DHT22;4871;52.004;5.924;2022-09-29T05:50:00;7.8;68.0
9666;DHT22;4871;52.004;5.924;2022-09-29T05:51:09;7.7;68.2
9666;DHT22;4871;52.004;5.924;2022-09-29T05:52:00;7.7;68.3
9666;DHT22;4871;52.004;5.924;2022-09-29T05:53:02;7.7;68.3
9666;DHT22;4871;52.004;5.924;2022-09-29T05:54:00;7.7;68.1
9666;DHT22;4871;52.004;5.924;2022-09-29T05:55:00;7.7;68.1
9666;DHT22;4871;52.004;5.924;2022-09-29T05:56:04;7.7;68.1
9666;DHT22;4871;52.004;5.924;2022-09-29T05:57:00;7.7;68.3
9666;DHT22;4871;52.004;5.924;2022-09-29T05:58:00;7.7;68.2
9666;DHT22;4871;52.004;5.924;2022-09-29T05:59:00;7.7;68.2
9666;DHT22;4871;52.004;5.924;2022-09-29T06:00:00;7.7;68.3
9666;DHT22;4871;52.004;5.924;2022-09-29T06:01:04;7.7;68.2
9666;DHT22;4871;52.004;5.924;2022-09-29T06:02:00;7.7;68.4
9666;DHT22;4871;52.004;5.924;2022-09-29T06:03:01;7.7;68.3
9666;DHT22;4871;52.004;5.924;2022-09-29T06:04:00;7.7;68.2
9666;DHT22;4871;52.004;5.924;2022-09-29T06:05:00;7.7;68.1
9666;DHT22;4871;52.004;5.924;2022-09-29T06:06:04;7.7;68.2
9666;DHT22;4871;52.004;5.924;2022-09-29T06:07:00;7.7;68.1
9666;DHT22;4871;52.004;5.924;2022-09-29T06:08:03;7.7;68.1
9666;DHT22;4871;52.004;5.924;2022-09-29T06:09:00;7.7;68.2
9666;DHT22;4871;52.004;5.924;2022-09-29T06:10:00;7.7;68.2
9666;DHT22;4871;52.004;5.924;2022-09-29T06:11:02;7.8;68.0
9666;DHT22;4871;52.004;5.924;2022-09-29T06:12:00;7.8;68.0
9666;DHT22;4871;52.004;5.924;2022-09-29T06:13:02;7.8;67.8
9666;DHT22;4871;52.004;5.924;2022-09-29T06:14:01;7.7;68.0
9666;DHT22;4871;52.004;5.924;2022-09-29T06:15:00;7.7;68.2
9666;DHT22;4871;52.004;5.924;2022-09-29T06:16:00;7.7;68.2
9666;DHT22;4871;52.004;5.924;2022-09-29T06:17:00;7.8;68.0
9666;DHT22;4871;52.004;5.924;2022-09-29T06:18:00;7.8;68.0
9666;DHT22;4871;52.004;5.924;2022-09-29T06:19:01;7.8;67.9
9666;DHT22;4871;52.004;5.924;2022-09-29T06:20:00;7.8;68.2
9666;DHT22;4871;52.004;5.924;2022-09-29T06:21:02;7.8;68.1
9666;DHT22;4871;52.004;5.924;2022-09-29T06:22:00;7.8;68.1
9666;DHT22;4871;52.004;5.924;2022-09-29T06:23:00;7.8;68.1
9666;DHT22;4871;52.004;5.924;2022-09-29T06:24:00;7.8;67.9
9666;DHT22;4871;52.004;5.924;2022-09-29T06:25:00;7.9;67.6
9666;DHT22;4871;52.004;5.924;2022-09-29T06:26:03;7.8;67.8
9666;DHT22;4871;52.004;5.924;2022-09-29T06:27:00;7.8;67.9
9666;DHT22;4871;52.004;5.924;2022-09-29T06:28:00;7.9;67.8
9666;DHT22;4871;52.004;5.924;2022-09-29T06:29:00;7.8;68.0
9666;DHT22;4871;52.004;5.924;2022-09-29T06:30:00;7.8;68.1
9666;DHT22;4871;52.004;5.924;2022-09-29T06:31:01;7.8;68.2
9666;DHT22;4871;52.004;5.924;2022-09-29T06:32:00;7.8;68.1
9666;DHT22;4871;52.004;5.924;2022-09-29T06:33:00;7.9;67.7
9666;DHT22;4871;52.004;5.924;2022-09-29T06:34:02;7.9;67.8
9666;DHT22;4871;52.004;5.924;2022-09-29T06:35:10;7.9;68.5
9666;DHT22;4871;52.004;5.924;2022-09-29T06:36:19;7.9;68.3
9666;DHT22;4871;52.004;5.924;2022-09-29T06:37:10;7.9;68.2
9666;DHT22;4871;52.004;5.924;2022-09-29T06:38:00;8.0;67.9
9666;DHT22;4871;52.004;5.924;2022-09-29T06:39:00;8.0;67.8
9666;DHT22;4871;52.004;5.924;2022-09-29T06:40:02;8.0;67.8
9666;DHT22;4871;52.004;5.924;2022-09-29T06:41:00;8.0;67.8
9666;DHT22;4871;52.004;5.924;2022-09-29T06:42:00;8.1;67.7
9666;DHT22;4871;52.004;5.924;2022-09-29T06:43:00;8.1;67.6
9666;DHT22;4871;52.004;5.924;2022-09-29T06:44:00;8.1;67.6
9666;DHT22;4871;52.004;5.924;2022-09-29T06:45:00;8.1;67.5
9666;DHT22;4871;52.004;5.924;2022-09-29T06:46:00;8.1;67.4
9666;DHT22;4871;52.004;5.924;2022-09-29T06:47:00;8.2;67.4
9666;DHT22;4871;52.004;5.924;2022-09-29T06:48:01;8.2;67.4
9666;DHT22;4871;52.004;5.924;2022-09-29T06:49:00;8.2;67.5
9666;DHT22;4871;52.004;5.924;2022-09-29T06:50:00;8.2;67.4
9666;DHT22;4871;52.004;5.924;2022-09-29T06:51:00;8.3;67.3
9666;DHT22;4871;52.004;5.924;2022-09-29T06:52:00;8.2;67.3
9666;DHT22;4871;52.004;5.924;2022-09-29T06:53:00;8.3;67.4
9666;DHT22;4871;52.004;5.924;2022-09-29T06:54:00;8.3;67.3
9666;DHT22;4871;52.004;5.924;2022-09-29T06:55:00;8.3;67.3
9666;DHT22;4871;52.004;5.924;2022-09-29T06:56:01;8.3;67.4
9666;DHT22;4871;52.004;5.924;2022-09-29T06:57:00;8.3;67.3
9666;DHT22;4871;52.004;5.924;2022-09-29T06:58:00;8.3;67.3
9666;DHT22;4871;52.004;5.924;2022-09-29T06:59:00;8.3;67.3
9666;DHT22;4871;52.004;5.924;2022-09-29T07:00:00;8.4;67.3
9666;DHT22;4871;52.004;5.924;2022-09-29T07:01:01;8.4;67.2
9666;DHT22;4871;52.004;5.924;2022-09-29T07:02:00;8.4;67.3
9666;DHT22;4871;52.004;5.924;2022-09-29T07:03:00;8.4;67.2
9666;DHT22;4871;52.004;5.924;2022-09-29T07:04:01;8.4;67.2